Time;durP1;ratioP1;P1;durP2;ratioP2;P2;SDS_P1;SDS_P2;PMS_P1;PMS_P2;Temp;Humidity;BMP_temperature;BMP_pressure;BME280_temperature;BME280_humidity;BME280_pressure;Samples;Min_cycle;Max_cycle;Signal;HPM_P1;HPM_P2
2023/08/15 00:02:05;;;;;;;10.30;4.68;;;21.90;99.90;;;22.30;75.32;100285.78;4979972;28;20043;-87
2023/08/15 00:04:35;;;;;;;7.40;4.80;;;21.90;99.90;;;22.28;75.35;100283.38;4955894;28;20107;-87
2023/08/15 00:07:04;;;;;;;7.32;5.03;;;21.90;99.90;;;22.27;75.16;100276.31;4977990;28;20043;-86
2023/08/15 00:09:32;;;;;;;9.43;5.05;;;21.80;99.90;;;22.25;75.07;100269.56;4963309;28;20049;-86
2023/08/15 00:11:59;;;;;;;6.97;4.38;;;21.80;99.90;;;22.24;74.50;100266.03;4961248;28;20049;-87
2023/08/15 00:14:27;;;;;;;7.07;4.35;;;21.80;99.90;;;22.24;74.82;100260.59;4957966;28;20035;-86
2023/08/15 00:16:54;;;;;;;8.55;4.85;;;21.80;99.90;;;22.23;75.06;100258.19;4962750;28;20395;-87
2023/08/15 00:19:21;;;;;;;11.70;5.35;;;21.80;99.90;;;22.19;75.43;100251.72;4957370;28;20169;-86
2023/08/15 00:21:49;;;;;;;8.25;4.47;;;21.80;99.90;;;22.17;75.87;100249.31;4951071;28;20492;-86
2023/08/15 00:24:18;;;;;;;8.32;4.95;;;21.70;99.90;;;22.17;75.55;100245.78;4962874;28;20499;-86
2023/08/15 00:26:45;;;;;;;9.60;4.72;;;21.70;99.90;;;22.17;75.30;100248.50;4976058;28;20492;-87
2023/08/15 00:29:12;;;;;;;10.35;4.75;;;21.70;99.90;;;22.15;75.22;100240.63;4961726;28;20153;-86
2023/08/15 00:31:40;;;;;;;7.18;4.50;;;21.70;99.90;;;22.14;75.15;100238.22;4969595;28;20045;-86
2023/08/15 00:34:07;;;;;;;8.93;4.80;;;21.70;99.90;;;22.07;76.37;100233.94;4957970;28;20075;-87
2023/08/15 00:36:35;;;;;;;8.15;5.13;;;21.70;99.90;;;22.09;76.35;100242.59;4954891;28;20042;-87
2023/08/15 00:39:02;;;;;;;9.27;4.80;;;21.70;99.90;;;22.09;75.98;100242.59;4959469;28;20161;-87
2023/08/15 00:41:31;;;;;;;15.00;4.75;;;21.70;99.90;;;22.09;76.22;100252.66;4963202;28;20138;-86
2023/08/15 00:43:58;;;;;;;7.88;4.80;;;21.70;99.90;;;22.07;75.77;100255.66;4957593;28;20043;-86
2023/08/15 00:46:27;;;;;;;10.73;5.30;;;21.60;99.90;;;22.07;75.88;100265.72;4952179;28;20039;-86
2023/08/15 00:48:56;;;;;;;8.77;4.57;;;21.60;99.90;;;22.05;75.56;100249.69;4964225;28;20089;-87
2023/08/15 00:51:24;;;;;;;8.40;5.25;;;21.60;99.90;;;22.04;75.90;100250.81;4952830;28;20053;-87
2023/08/15 00:53:52;;;;;;;6.75;5.03;;;21.60;99.90;;;22.03;75.39;100242.97;4962082;28;20042;-87
2023/08/15 00:56:22;;;;;;;10.13;4.90;;;21.60;99.90;;;22.02;75.15;100249.50;4950518;28;20439;-87
2023/08/15 00:58:51;;;;;;;8.48;4.80;;;21.50;99.90;;;22.01;75.51;100248.69;4955414;28;20424;-87
2023/08/15 01:01:21;;;;;;;6.72;4.65;;;21.50;99.90;;;22.00;75.73;100240.81;4946232;28;20039;-87
2023/08/15 01:03:49;;;;;;;8.88;4.90;;;21.50;99.90;;;21.98;75.53;100243.84;4953464;28;20043;-87
2023/08/15 01:06:16;;;;;;;7.20;4.50;;;21.50;99.90;;;21.98;75.37;100237.59;4951084;28;20398;-87
2023/08/15 01:08:43;;;;;;;7.45;4.85;;;21.50;99.90;;;21.97;75.42;100236.00;4961743;28;20118;-87
2023/08/15 01:11:11;;;;;;;8.13;4.75;;;21.50;99.90;;;21.94;75.74;100237.38;4975466;28;20052;-86
2023/08/15 01:13:46;;;;;;;7.43;5.07;;;21.50;99.90;;;21.90;75.61;100233.63;4960063;28;20047;-87
2023/08/15 01:16:22;;;;;;;7.80;4.88;;;21.40;99.90;;;21.88;75.86;100219.53;4954183;28;20070;-87
2023/08/15 01:18:58;;;;;;;7.65;5.03;;;21.40;99.90;;;21.87;76.15;100208.97;4952438;28;20690;-87
2023/08/15 01:21:33;;;;;;;9.63;5.28;;;21.30;99.90;;;21.84;76.02;100207.63;4958939;28;20067;-87
2023/08/15 01:24:02;;;;;;;8.10;5.10;;;21.30;99.90;;;21.83;75.78;100192.44;4957196;28;20101;-87
2023/08/15 01:27:02;;;;;;;9.20;5.05;;;21.30;99.90;;;21.80;76.10;100204.69;5202057;27;20409;-86
2023/08/15 01:29:29;;;;;;;7.95;4.90;;;21.30;99.90;;;21.78;75.99;100206.09;5162015;27;20490;-86
2023/08/15 01:32:08;;;;;;;7.35;5.22;;;21.20;99.90;;;21.75;75.87;100210.19;5151272;27;20133;-86
2023/08/15 01:34:43;;;;;;;8.68;4.90;;;21.20;99.90;;;21.73;76.18;100206.16;5141898;27;20537;-86
2023/08/15 01:37:17;;;;;;;7.32;5.05;;;21.20;99.90;;;21.73;76.09;100206.16;5148746;27;20585;-86
2023/08/15 01:39:50;;;;;;;7.40;4.78;;;21.20;99.90;;;21.71;75.95;100200.22;5152200;27;20482;-86
2023/08/15 01:42:21;;;;;;;8.27;4.80;;;21.20;99.90;;;21.71;76.53;100211.06;5151412;27;20043;-86
2023/08/15 01:44:50;;;;;;;8.68;5.10;;;21.20;99.90;;;21.72;76.29;100201.84;5147316;27;20088;-86
2023/08/15 01:47:18;;;;;;;7.82;4.97;;;21.20;99.90;;;21.72;76.64;100196.41;5147589;27;20038;-86
2023/08/15 01:49:45;;;;;;;11.20;5.10;;;21.20;99.90;;;21.69;76.17;100200.50;5150058;27;20510;-87
2023/08/15 01:52:12;;;;;;;8.30;5.15;;;21.20;99.90;;;21.69;76.30;100213.28;5146740;27;20570;-87
2023/08/15 01:54:40;;;;;;;8.27;5.00;;;21.20;99.90;;;21.69;76.54;100210.56;5151215;27;20035;-87
2023/08/15 01:57:07;;;;;;;11.05;4.90;;;21.20;99.90;;;21.66;76.54;100217.38;5133839;27;20103;-87
2023/08/15 01:59:36;;;;;;;7.25;5.00;;;21.10;99.90;;;21.65;76.63;100215.75;5142958;27;20533;-87
2023/08/15 02:02:06;;;;;;;8.05;5.10;;;21.10;99.90;;;21.65;77.81;100214.94;5150812;27;20042;-86
2023/08/15 02:04:33;;;;;;;7.68;4.70;;;21.20;99.90;;;21.67;76.58;100223.59;5165099;27;20510;-87
2023/08/15 02:07:01;;;;;;;6.47;4.65;;;21.20;99.90;;;21.67;76.92;100223.59;5168784;27;20053;-87
2023/08/15 02:09:28;;;;;;;9.63;5.05;;;21.20;99.90;;;21.69;76.22;100226.84;5148994;27;20066;-87
2023/08/15 02:11:56;;;;;;;8.02;5.00;;;21.20;99.90;;;21.72;78.53;100229.00;5130927;27;20047;-87
2023/08/15 02:14:24;;;;;;;10.32;5.07;;;21.30;99.90;;;21.74;77.97;100224.06;5159590;27;20057;-87
2023/08/15 02:16:53;;;;;;;7.43;4.88;;;21.30;99.90;;;21.75;77.43;100228.38;5145839;27;20129;-87
2023/08/15 02:19:20;;;;;;;7.45;4.88;;;21.30;99.90;;;21.76;76.54;100238.16;5159066;27;20448;-87
2023/08/15 02:21:47;;;;;;;9.45;5.50;;;21.30;99.90;;;21.79;77.38;100245.72;5144558;27;20054;-87
2023/08/15 02:24:15;;;;;;;7.80;5.40;;;21.40;99.90;;;21.80;78.49;100259.00;5150391;27;20405;-86
2023/08/15 02:26:42;;;;;;;9.07;5.15;;;21.40;99.90;;;21.84;78.68;100267.38;5141406;27;20043;-86
2023/08/15 02:29:10;;;;;;;8.68;5.13;;;21.40;99.90;;;21.83;78.77;100255.72;5148593;27;20066;-87
2023/08/15 02:31:44;;;;;;;9.70;5.68;;;21.50;99.90;;;21.86;78.73;100259.72;5149584;27;20074;-87
2023/08/15 02:34:13;;;;;;;7.65;4.97;;;21.50;99.90;;;21.85;79.30;100249.97;5140458;27;20077;-87
2023/08/15 02:36:40;;;;;;;8.27;5.75;;;21.50;99.90;;;21.86;79.13;100254.31;5162378;27;20096;-87
2023/08/15 02:39:08;;;;;;;9.98;5.03;;;21.50;99.90;;;21.84;79.26;100234.78;5135984;27;20125;-87
2023/08/15 02:41:35;;;;;;;8.82;5.22;;;21.50;99.90;;;21.84;79.91;100235.59;5132308;27;20050;-87
2023/08/15 02:44:02;;;;;;;8.05;4.95;;;21.50;99.90;;;21.84;80.27;100234.78;5142376;27;20038;-86
2023/08/15 02:46:29;;;;;;;8.25;5.38;;;21.50;99.90;;;21.84;80.54;100226.66;5129241;27;20058;-86
2023/08/15 02:48:57;;;;;;;8.25;5.70;;;21.40;99.90;;;21.82;81.45;100237.00;5132807;27;20373;-86
2023/08/15 02:51:25;;;;;;;12.90;5.47;;;21.40;99.90;;;21.82;81.67;100242.44;5132472;27;20046;-86
2023/08/15 02:53:53;;;;;;;9.32;4.93;;;21.50;99.90;;;21.83;81.83;100238.63;5116189;27;20113;-86
2023/08/15 02:56:20;;;;;;;9.38;5.00;;;21.50;99.90;;;21.82;82.15;100237.81;5131881;27;20130;-86
2023/08/15 02:58:47;;;;;;;10.95;5.75;;;21.50;99.90;;;21.85;82.72;100231.78;5125561;27;20078;-86
2023/08/15 03:01:14;;;;;;;12.32;5.35;;;21.50;99.90;;;21.87;82.71;100228.78;5132827;27;20069;-86
2023/08/15 03:03:42;;;;;;;7.40;4.97;;;21.60;99.90;;;21.88;82.65;100219.53;5136061;27;20066;-86
2023/08/15 03:06:09;;;;;;;8.45;5.43;;;21.50;99.90;;;21.88;83.22;100205.97;5148794;27;20043;-86
2023/08/15 03:08:38;;;;;;;9.57;5.72;;;21.50;99.90;;;21.87;83.72;100204.34;5152125;27;20062;-86
2023/08/15 03:11:05;;;;;;;7.97;5.15;;;21.60;99.90;;;21.85;83.89;100230.97;5132205;27;20061;-86
2023/08/15 03:13:32;;;;;;;10.23;5.72;;;21.50;99.90;;;21.83;85.00;100227.75;5146548;27;20039;-86
2023/08/15 03:16:00;;;;;;;7.32;5.28;;;21.50;99.90;;;21.83;85.00;100238.63;5135468;27;20127;-86
2023/08/15 03:18:30;;;;;;;10.17;5.27;;;21.50;99.90;;;21.84;85.02;100229.38;5129743;27;20074;-86
2023/08/15 03:20:58;;;;;;;9.77;5.32;;;21.60;99.90;;;21.84;85.33;100218.50;5140866;27;20042;-86
2023/08/15 03:23:25;;;;;;;8.48;5.13;;;21.50;99.90;;;21.84;85.57;100222.03;5145306;27;20060;-86
2023/08/15 03:25:57;;;;;;;8.73;5.30;;;21.50;99.90;;;21.84;85.44;100218.50;5136237;27;20059;-86
2023/08/15 03:28:29;;;;;;;7.45;5.47;;;21.50;99.90;;;21.86;85.89;100238.00;5136199;27;20039;-86
2023/08/15 03:30:57;;;;;;;8.82;4.80;;;21.50;99.90;;;21.85;85.49;100250.78;5135549;27;20087;-86
2023/08/15 03:33:26;;;;;;;12.35;5.32;;;21.50;99.90;;;21.84;85.63;100262.75;5134999;27;20484;-86
2023/08/15 03:35:54;;;;;;;9.60;5.38;;;21.50;99.90;;;21.83;86.31;100263.06;5126211;27;20043;-86
2023/08/15 03:38:23;;;;;;;9.35;5.50;;;21.50;99.90;;;21.83;87.50;100249.47;5133920;27;20138;-87
2023/08/15 03:41:03;;;;;;;9.73;5.72;;;21.50;99.90;;;21.76;88.08;100236.22;5134669;27;20337;-87
2023/08/15 03:43:30;;;;;;;10.20;6.60;;;21.50;99.90;;;21.76;89.07;100230.81;5129262;27;20046;-87
2023/08/15 03:45:58;;;;;;;10.27;6.10;;;21.50;99.90;;;21.74;89.75;100246.59;5135690;27;20040;-87
2023/08/15 03:48:25;;;;;;;11.60;5.93;;;21.50;99.90;;;21.75;89.45;100228.38;5133369;27;20039;-87
2023/08/15 03:50:55;;;;;;;12.25;6.63;;;21.50;99.90;;;21.75;89.52;100220.25;5135359;27;20137;-86
2023/08/15 03:53:25;;;;;;;10.57;5.85;;;21.50;99.90;;;21.73;90.05;100212.41;5133761;27;20042;-87
2023/08/15 03:55:55;;;;;;;11.48;6.82;;;21.40;99.90;;;21.72;90.72;100201.84;5134931;27;20506;-87
2023/08/15 03:58:24;;;;;;;8.75;5.70;;;21.40;99.90;;;21.70;90.87;100171.44;5135441;27;20413;-87
2023/08/15 04:00:52;;;;;;;10.25;6.70;;;21.40;99.90;;;21.72;90.23;100158.41;5131742;27;20513;-88
2023/08/15 04:03:20;;;;;;;15.10;6.80;;;21.40;99.90;;;21.73;89.69;100141.03;5134471;27;20043;-85
2023/08/15 04:05:48;;;;;;;11.18;6.90;;;21.40;99.90;;;21.74;90.00;100143.44;5132695;27;20035;-86
2023/08/15 04:08:16;;;;;;;13.07;6.82;;;21.40;99.90;;;21.72;90.27;100170.06;5153092;27;20125;-86
2023/08/15 04:10:46;;;;;;;12.23;6.50;;;21.40;99.90;;;21.69;89.74;100205.13;5113663;27;20053;-86
2023/08/15 04:13:14;;;;;;;12.40;6.32;;;21.40;99.90;;;21.68;88.81;100239.63;5132790;27;20129;-86
2023/08/15 04:15:46;;;;;;;9.88;5.70;;;21.30;99.90;;;21.70;88.55;100261.03;5131729;27;20138;-86
2023/08/15 04:18:13;;;;;;;14.02;6.60;;;21.40;99.90;;;21.66;90.01;100287.94;5133909;27;20512;-86
2023/08/15 04:20:43;;;;;;;9.30;6.03;;;21.30;99.90;;;21.63;90.27;100295.88;5129519;27;20034;-87
2023/08/15 04:23:11;;;;;;;13.15;6.55;;;21.30;99.90;;;21.51;91.74;100294.34;5135719;27;20080;-86
2023/08/15 04:25:40;;;;;;;12.77;6.32;;;21.30;99.90;;;21.47;92.13;100287.91;5132681;27;20041;-86
2023/08/15 04:28:08;;;;;;;10.52;6.32;;;21.20;99.90;;;21.50;91.26;100290.03;5131295;27;20133;-86
2023/08/15 04:30:38;;;;;;;11.20;6.05;;;21.20;99.90;;;21.51;90.22;100299.78;5134433;27;20043;-86
2023/08/15 04:33:07;;;;;;;13.85;6.40;;;21.20;99.90;;;21.55;90.00;100319.03;5134032;27;20047;-86
2023/08/15 04:35:34;;;;;;;9.38;5.82;;;21.20;99.90;;;21.54;89.22;100334.50;5134137;27;20043;-86
2023/08/15 04:38:02;;;;;;;10.23;5.72;;;21.20;99.90;;;21.58;88.87;100345.59;5127109;27;20043;-86
2023/08/15 04:40:37;;;;;;;10.43;5.35;;;21.20;99.90;;;21.59;88.78;100347.22;5139826;27;20049;-86
2023/08/15 04:43:05;;;;;;;10.65;5.63;;;21.20;99.90;;;21.58;87.48;100357.25;5125575;27;20063;-86
2023/08/15 04:45:32;;;;;;;14.52;5.90;;;21.20;99.90;;;21.57;87.65;100368.41;5134653;27;20129;-86
2023/08/15 04:48:00;;;;;;;9.88;5.95;;;21.20;99.90;;;21.56;87.52;100369.47;5150827;27;20053;-86
2023/08/15 04:50:29;;;;;;;9.25;6.13;;;21.20;99.90;;;21.55;87.41;100379.53;5126585;27;20043;-86
2023/08/15 04:52:56;;;;;;;9.43;5.47;;;21.20;99.90;;;21.56;86.71;100385.78;5124271;27;20039;-86
2023/08/15 04:55:24;;;;;;;10.45;5.53;;;21.10;99.90;;;21.55;86.35;100384.97;5132392;27;20794;-86
2023/08/15 04:57:52;;;;;;;14.23;5.88;;;21.20;99.90;;;21.53;87.07;100375.50;5132962;27;20445;-86
2023/08/15 05:00:20;;;;;;;11.85;5.88;;;21.10;99.90;;;21.52;86.77;100377.41;5147729;27;20091;-86
2023/08/15 05:02:47;;;;;;;12.32;5.55;;;21.10;99.90;;;21.53;85.95;100386.34;5129919;27;20496;-86
2023/08/15 05:05:15;;;;;;;11.23;5.55;;;21.10;99.90;;;21.54;85.99;100383.34;5129062;27;20125;-86
2023/08/15 05:07:44;;;;;;;9.02;5.03;;;21.10;99.90;;;21.53;86.75;100389.88;5129812;27;20563;-87
2023/08/15 05:10:12;;;;;;;11.90;5.60;;;21.10;99.90;;;21.53;86.54;100391.78;5126659;27;20072;-86
2023/08/15 05:12:43;;;;;;;10.13;5.20;;;21.10;99.90;;;21.52;86.64;100382.84;5131238;27;20059;-85
2023/08/15 05:15:10;;;;;;;9.15;5.60;;;21.10;99.90;;;21.54;86.17;100388.78;5133989;27;20058;-86
2023/08/15 05:17:38;;;;;;;10.20;5.00;;;21.10;99.90;;;21.55;86.06;100398.53;5136070;27;20098;-86
2023/08/15 05:20:07;;;;;;;12.70;5.43;;;21.10;99.90;;;21.53;86.41;100398.03;5132443;27;20650;-86
2023/08/15 05:22:35;;;;;;;11.05;5.88;;;21.10;99.90;;;21.55;86.39;100395.81;5129898;27;20439;-86
2023/08/15 05:25:04;;;;;;;9.10;5.25;;;21.10;99.90;;;21.56;86.69;100399.34;5135147;27;20043;-86
2023/08/15 05:27:34;;;;;;;11.93;5.15;;;21.10;99.90;;;21.52;86.34;100401.00;5133403;27;20050;-86
2023/08/15 05:30:03;;;;;;;10.85;5.30;;;21.10;99.90;;;21.53;86.87;100410.78;5128927;27;20038;-86
2023/08/15 05:32:31;;;;;;;10.05;5.85;;;21.10;99.90;;;21.55;86.64;100405.88;5124676;28;20111;-86
2023/08/15 05:34:58;;;;;;;9.32;5.85;;;21.10;99.90;;;21.53;86.63;100395.31;5123501;28;20066;-85
2023/08/15 05:37:25;;;;;;;10.02;5.50;;;21.10;99.90;;;21.53;87.10;100398.03;5133338;27;20129;-85
2023/08/15 05:39:53;;;;;;;10.95;5.28;;;21.10;99.90;;;21.54;87.37;100383.34;5133838;27;20050;-86
2023/08/15 05:42:21;;;;;;;12.27;5.85;;;21.10;99.90;;;21.55;87.70;100381.44;5150136;27;21553;-87
2023/08/15 05:44:48;;;;;;;9.65;5.85;;;21.10;99.90;;;21.56;87.90;100389.28;5147722;27;20066;-86
2023/08/15 05:47:16;;;;;;;12.10;6.03;;;21.20;99.90;;;21.53;87.28;100381.75;5133384;27;20099;-86
2023/08/15 05:49:43;;;;;;;10.63;5.78;;;21.20;99.90;;;21.52;87.32;100385.56;5133448;27;20471;-87
2023/08/15 05:52:11;;;;;;;11.05;5.75;;;21.20;99.90;;;21.51;87.62;100391.25;5124492;27;20093;-87
2023/08/15 05:54:38;;;;;;;10.70;5.50;;;21.10;99.90;;;21.51;86.82;100405.63;5134431;27;20038;-87
2023/08/15 05:57:06;;;;;;;9.15;6.00;;;21.20;99.90;;;21.53;86.71;100397.22;5128871;27;20038;-87
2023/08/15 05:59:34;;;;;;;12.85;5.53;;;21.20;99.90;;;21.53;87.05;100398.03;5133923;27;20509;-87
2023/08/15 06:02:04;;;;;;;11.13;6.07;;;21.20;99.90;;;21.55;87.10;100414.81;5142262;27;20103;-89
2023/08/15 06:04:31;;;;;;;11.45;5.57;;;21.20;99.90;;;21.53;87.31;100414.31;5132541;27;20050;-84
2023/08/15 06:06:58;;;;;;;12.10;6.47;;;21.20;99.90;;;21.57;86.75;100419.97;5134071;27;20045;-84
2023/08/15 06:09:27;;;;;;;12.65;7.22;;;21.30;99.90;;;21.56;87.36;100419.16;5133763;27;20294;-83
2023/08/15 06:11:54;;;;;;;12.65;5.95;;;21.30;99.90;;;21.59;87.68;100423.22;5130923;27;20421;-84
2023/08/15 06:14:21;;;;;;;10.63;6.63;;;21.30;99.90;;;21.63;88.22;100426.16;5136028;27;21898;-84
2023/08/15 06:16:50;;;;;;;14.27;6.95;;;21.30;99.90;;;21.62;88.01;100430.78;5150504;27;20062;-83
2023/08/15 06:19:50;;;;;;;14.05;6.75;;;21.30;99.90;;;21.57;87.96;100431.66;5149135;27;20125;-83
2023/08/15 06:22:17;;;;;;;12.90;7.05;;;21.30;99.90;;;21.54;88.13;100437.63;5136147;27;20047;-83
2023/08/15 06:24:44;;;;;;;12.18;6.65;;;21.30;99.90;;;21.55;87.68;100433.81;5121951;27;20038;-83
2023/08/15 06:27:11;;;;;;;10.38;6.50;;;21.30;99.90;;;21.55;89.02;100433.00;5154826;27;20084;-83
2023/08/15 06:29:38;;;;;;;12.27;6.55;;;21.30;99.90;;;21.59;88.46;100440.28;5138309;27;20042;-83
2023/08/15 06:32:08;;;;;;;15.88;6.70;;;21.40;99.90;;;21.63;89.17;100443.25;5135162;27;20475;-83
2023/08/15 06:34:37;;;;;;;12.10;6.32;;;21.40;99.90;;;21.65;89.25;100442.97;5156865;27;20043;-83
2023/08/15 06:37:04;;;;;;;11.40;7.10;;;21.40;99.90;;;21.68;90.08;100439.69;5156745;27;20035;-83
2023/08/15 06:39:31;;;;;;;12.13;6.75;;;21.40;99.90;;;21.69;90.05;100433.16;5138025;27;20046;-82
2023/08/15 06:41:59;;;;;;;13.63;6.55;;;21.40;99.90;;;21.69;90.32;100439.41;5137666;27;20050;-82
2023/08/15 06:44:26;;;;;;;13.30;7.47;;;21.40;99.90;;;21.69;90.96;100444.03;5156460;27;20737;-82
2023/08/15 06:46:53;;;;;;;12.48;7.22;;;21.40;99.90;;;21.68;91.65;100445.94;5136725;27;20041;-83
2023/08/15 06:49:22;;;;;;;13.07;7.47;;;21.50;99.90;;;21.71;92.01;100449.97;5145136;27;20046;-83
2023/08/15 06:51:49;;;;;;;10.40;6.78;;;21.50;99.90;;;21.70;91.68;100445.63;5158308;27;20134;-84
2023/08/15 06:54:17;;;;;;;14.88;7.03;;;21.50;99.90;;;21.71;91.37;100442.63;5139357;27;20506;-84
2023/08/15 06:56:45;;;;;;;11.32;7.18;;;21.50;99.90;;;21.72;90.99;100441.56;5157405;27;20043;-84
2023/08/15 06:59:12;;;;;;;11.68;6.82;;;21.50;99.90;;;21.75;91.50;100437.44;5156325;27;20053;-83
2023/08/15 07:01:40;;;;;;;11.82;7.15;;;21.60;99.90;;;21.76;91.29;100441.75;5156899;27;20471;-84
2023/08/15 07:04:07;;;;;;;14.05;7.32;;;21.60;99.90;;;21.70;92.08;100442.91;5156690;27;20043;-83
2023/08/15 07:06:37;;;;;;;12.27;7.57;;;21.60;99.90;;;21.70;92.57;100440.19;5138842;27;20035;-83
2023/08/15 07:09:06;;;;;;;17.17;8.27;;;21.50;99.90;;;21.74;92.90;100441.25;5157289;27;20034;-83
2023/08/15 07:11:34;;;;;;;11.93;7.80;;;21.60;99.90;;;21.70;92.26;100446.44;5157192;27;20050;-83
2023/08/15 07:14:01;;;;;;;12.70;8.38;;;21.60;99.90;;;21.69;92.18;100444.81;5154154;27;20041;-83
2023/08/15 07:16:28;;;;;;;13.50;8.20;;;21.60;99.90;;;21.69;91.78;100446.72;5138821;27;20078;-83
2023/08/15 07:18:55;;;;;;;14.10;7.78;;;21.60;99.90;;;21.69;91.52;100446.72;5157262;27;20042;-83
2023/08/15 07:21:23;;;;;;;11.43;7.18;;;21.50;99.90;;;21.72;91.47;100449.69;5156929;27;20122;-83
2023/08/15 07:23:51;;;;;;;16.42;8.20;;;21.50;99.90;;;21.69;91.83;100452.97;5138355;27;20491;-83
2023/08/15 07:26:19;;;;;;;13.05;7.20;;;21.50;99.90;;;21.68;90.76;100455.97;5157070;27;20486;-83
2023/08/15 07:28:46;;;;;;;12.70;7.22;;;21.50;99.90;;;21.64;89.82;100460.34;5138381;27;20085;-83
2023/08/15 07:31:15;;;;;;;17.10;7.07;;;21.50;99.90;;;21.60;89.76;100458.19;5152356;27;20031;-83
2023/08/15 07:33:42;;;;;;;14.32;7.07;;;21.50;99.90;;;21.62;88.97;100451.66;5156624;27;20051;-83
2023/08/15 07:36:09;;;;;;;14.02;6.53;;;21.50;99.90;;;21.68;89.13;100453.25;5138371;27;20054;-83
2023/08/15 07:38:36;;;;;;;14.57;6.38;;;21.60;99.90;;;21.65;88.82;100459.25;5138323;27;20426;-83
2023/08/15 07:41:05;;;;;;;13.55;6.85;;;21.60;99.90;;;21.68;88.58;100453.25;5155337;27;20073;-83
2023/08/15 07:43:32;;;;;;;13.05;6.55;;;21.60;99.90;;;21.72;87.18;100467.91;5156404;27;20082;-83
2023/08/15 07:46:00;;;;;;;22.45;6.50;;;21.60;99.90;;;21.72;87.24;100457.03;5138297;27;20137;-83
2023/08/15 07:48:28;;;;;;;15.10;6.03;;;21.60;99.90;;;21.73;86.67;100467.59;5157028;27;20045;-83
2023/08/15 07:50:55;;;;;;;13.27;5.95;;;21.50;99.90;;;21.73;85.87;100473.03;5156942;27;20041;-83
2023/08/15 07:53:23;;;;;;;13.27;5.40;;;21.60;99.90;;;21.76;84.40;100477.06;5141874;27;20047;-83
2023/08/15 07:55:51;;;;;;;13.60;5.50;;;21.60;99.90;;;21.79;85.70;100476.50;5118261;27;20442;-83
2023/08/15 07:58:19;;;;;;;11.00;5.32;;;21.70;99.90;;;21.86;85.59;100487.81;5139411;27;20079;-83
2023/08/15 08:00:46;;;;;;;8.85;4.90;;;21.80;99.90;;;21.94;85.38;100484.50;5156707;27;20035;-83
2023/08/15 08:03:14;;;;;;;8.93;4.00;;;21.80;99.90;;;21.99;84.38;100487.16;5134553;27;20045;-83
2023/08/15 08:05:41;;;;;;;8.27;4.00;;;21.90;99.90;;;21.98;82.67;100485.56;5152756;27;20031;-83
2023/08/15 08:08:09;;;;;;;9.02;3.78;;;22.00;99.90;;;21.99;81.59;100481.72;5135166;27;22060;-83
2023/08/15 08:10:36;;;;;;;12.18;3.90;;;22.00;99.90;;;21.99;79.97;100498.03;5136961;27;20042;-83
2023/08/15 08:13:06;;;;;;;7.93;3.72;;;22.00;99.90;;;21.97;79.83;100494.81;5149450;27;20403;-83
2023/08/15 08:15:35;;;;;;;7.05;3.50;;;22.00;99.90;;;22.00;80.13;100498.84;5135744;27;20124;-83
2023/08/15 08:18:02;;;;;;;10.43;3.80;;;22.00;99.90;;;21.98;79.84;100501.84;5152221;27;20118;-83
2023/08/15 08:20:30;;;;;;;8.85;3.72;;;21.90;99.90;;;22.04;80.62;100508.03;5156326;27;20039;-83
2023/08/15 08:22:57;;;;;;;6.90;3.55;;;22.00;99.90;;;22.13;81.16;100503.63;5153632;27;20118;-83
2023/08/15 08:25:25;;;;;;;9.95;4.15;;;22.10;99.90;;;22.19;80.13;100513.34;5137605;27;20561;-83
2023/08/15 08:27:52;;;;;;;10.80;4.28;;;22.20;99.90;;;22.20;80.84;100514.16;5136502;27;20054;-83
2023/08/15 08:30:21;;;;;;;8.52;4.10;;;22.20;99.90;;;22.19;80.52;100512.53;5136986;27;20038;-84
2023/08/15 08:32:50;;;;;;;8.05;4.35;;;22.20;99.90;;;22.14;79.72;100516.09;5155492;27;20129;-83
2023/08/15 08:35:18;;;;;;;9.30;4.10;;;22.20;99.90;;;22.11;79.37;100530.28;5133031;27;20134;-84
2023/08/15 08:37:48;;;;;;;10.23;4.60;;;22.20;99.90;;;22.18;79.76;100530.75;5143644;27;20145;-83
2023/08/15 08:40:17;;;;;;;7.32;3.95;;;22.30;99.90;;;22.29;79.96;100526.81;5137081;27;20509;-83
2023/08/15 08:42:45;;;;;;;9.18;3.30;;;22.40;99.90;;;22.47;79.83;100525.28;5153900;27;20031;-83
2023/08/15 08:45:13;;;;;;;9.57;3.00;;;22.60;99.90;;;22.52;77.10;100517.06;5120971;27;20050;-83
2023/08/15 08:47:42;;;;;;;9.43;2.72;;;22.70;99.90;;;22.54;74.28;100520.28;5156576;27;20077;-83
2023/08/15 08:50:12;;;;;;;5.05;2.50;;;22.80;99.90;;;22.65;75.01;100528.34;5157424;27;20529;-83
2023/08/15 08:52:41;;;;;;;5.38;2.08;;;22.90;99.90;;;22.68;74.08;100522.31;5134325;27;20046;-83
2023/08/15 08:55:10;;;;;;;5.93;2.00;;;22.90;99.90;;;22.68;71.79;100525.03;5118816;27;20049;-83
2023/08/15 08:57:38;;;;;;;4.38;2.17;;;22.90;99.90;;;22.76;73.01;100527.13;5123335;27;20478;-83
2023/08/15 09:00:11;;;;;;;5.22;1.55;;;22.90;99.90;;;22.85;69.67;100530.81;5137675;27;20066;-83
2023/08/15 09:02:40;;;;;;;6.63;1.77;;;23.10;99.90;;;22.90;67.73;100525.34;5118778;27;20050;-83
2023/08/15 09:05:11;;;;;;;6.15;1.75;;;23.20;99.90;;;22.93;69.11;100526.66;5137723;27;20085;-83
2023/08/15 09:07:39;;;;;;;4.63;1.45;;;23.20;99.90;;;22.92;66.36;100533.19;5156510;27;20106;-83
2023/08/15 09:10:08;;;;;;;3.90;1.30;;;23.20;99.90;;;22.92;66.98;100525.84;5138216;27;20049;-83
2023/08/15 09:12:37;;;;;;;3.97;1.52;;;23.20;99.90;;;22.99;67.54;100520.88;5155809;27;20062;-83
2023/08/15 09:15:09;;;;;;;6.57;1.70;;;23.20;99.90;;;23.04;66.26;100522.72;5156236;27;20038;-83
2023/08/15 09:17:38;;;;;;;5.03;1.50;;;23.30;99.90;;;23.06;66.60;100528.66;5137990;27;20081;-83
2023/08/15 09:20:13;;;;;;;5.15;1.40;;;23.30;99.90;;;23.11;67.40;100523.16;5155814;27;20049;-83
2023/08/15 09:22:44;;;;;;;3.50;1.30;;;23.40;99.90;;;23.12;66.39;100535.63;5154763;27;20045;-83
2023/08/15 09:25:14;;;;;;;4.18;1.38;;;23.40;99.90;;;23.16;67.44;100530.44;5155797;27;20034;-83
2023/08/15 09:27:43;;;;;;;6.47;1.92;;;23.40;99.90;;;23.19;66.39;100535.28;5154366;27;20062;-83
2023/08/15 09:30:13;;;;;;;5.82;1.83;;;23.40;99.90;;;23.27;68.82;100531.88;5137394;27;20053;-83
2023/08/15 09:32:41;;;;;;;5.72;1.73;;;23.50;99.90;;;23.32;69.43;100529.09;5156138;27;20050;-83
2023/08/15 09:35:12;;;;;;;7.22;2.00;;;23.60;99.90;;;23.39;66.43;100533.06;5137243;27;20043;-83
2023/08/15 09:37:44;;;;;;;5.80;1.95;;;23.70;99.90;;;23.48;67.71;100533.22;5155896;27;20506;-83
2023/08/15 09:40:15;;;;;;;6.13;2.00;;;23.80;99.90;;;23.47;65.50;100533.50;5155714;27;20096;-83
2023/08/15 09:42:43;;;;;;;5.88;1.63;;;23.70;99.70;;;23.40;65.51;100531.16;5127894;27;20043;-83
2023/08/15 09:45:13;;;;;;;7.90;1.75;;;23.70;99.90;;;23.47;66.61;100533.50;5136883;27;20058;-83
2023/08/15 09:47:41;;;;;;;3.72;1.48;;;23.80;99.90;;;23.50;66.60;100547.34;5158012;27;20065;-83
2023/08/15 09:50:13;;;;;;;5.43;1.90;;;23.80;99.90;;;23.50;66.08;100541.09;5159817;27;20117;-83
2023/08/15 09:52:43;;;;;;;5.07;1.42;;;23.80;99.90;;;23.53;66.82;100546.75;5139326;27;20067;-83
2023/08/15 09:55:12;;;;;;;12.10;1.63;;;23.80;99.90;;;23.64;66.99;100552.88;5140516;27;20449;-83
2023/08/15 09:57:41;;;;;;;4.43;1.60;;;23.90;99.90;;;23.70;65.77;100556.31;5140716;27;20078;-83
2023/08/15 10:00:12;;;;;;;4.13;1.60;;;24.00;99.90;;;23.73;65.89;100550.28;5140947;27;20490;-83
2023/08/15 10:02:49;;;;;;;4.20;1.55;;;24.00;99.90;;;23.75;65.81;100556.25;5158594;27;20062;-84
2023/08/15 10:05:23;;;;;;;4.57;1.53;;;24.10;99.70;;;23.85;66.59;100561.53;5159660;27;20117;-86
2023/08/15 10:07:52;;;;;;;5.40;1.50;;;24.20;99.90;;;23.82;65.42;100559.41;5140216;27;20386;-84
2023/08/15 10:10:20;;;;;;;7.22;1.85;;;24.20;99.50;;;23.87;67.34;100549.25;5139871;27;20110;-82
2023/08/15 10:12:50;;;;;;;3.47;1.40;;;24.20;99.90;;;23.96;64.71;100564.88;5158859;27;20200;-83
2023/08/15 10:15:18;;;;;;;4.65;1.48;;;24.30;99.00;;;24.01;65.38;100579.25;5140303;27;20081;-83
2023/08/15 10:17:46;;;;;;;5.68;1.67;;;24.30;99.30;;;24.02;65.53;100578.13;5140805;27;20127;-83